createdAt,value
2018-09-23T00:00:32.819Z,15.10
2018-09-23T00:03:37.087Z,15.10
2018-09-23T00:06:41.243Z,15.10
2018-09-23T00:09:45.560Z,15.10
2018-09-23T00:12:49.862Z,15.10
2018-09-23T00:15:54.276Z,15.10
2018-09-23T00:18:58.491Z,15.10
2018-09-23T00:22:02.634Z,15.00
2018-09-23T00:25:06.959Z,15.00
2018-09-23T00:28:11.305Z,14.90
2018-09-23T00:31:15.606Z,14.90
2018-09-23T00:34:19.840Z,15.00
2018-09-23T00:37:24.084Z,14.90
2018-09-23T00:40:28.303Z,14.80
2018-09-23T00:43:32.691Z,14.90
2018-09-23T00:46:37.137Z,14.90
2018-09-23T00:49:41.507Z,14.90
2018-09-23T00:52:45.769Z,14.90
2018-09-23T00:55:49.965Z,14.90
2018-09-23T00:58:54.173Z,14.90
2018-09-23T01:01:58.598Z,14.90
2018-09-23T01:05:03.070Z,14.90
2018-09-23T01:08:07.476Z,14.90
2018-09-23T01:11:11.785Z,14.90
2018-09-23T01:14:16.149Z,14.90
2018-09-23T01:17:20.551Z,14.90
2018-09-23T01:20:25.092Z,14.80
2018-09-23T01:23:29.384Z,14.90
2018-09-23T01:26:33.775Z,14.90
2018-09-23T01:29:37.907Z,14.90
2018-09-23T01:32:42.035Z,15.00
2018-09-23T01:35:46.378Z,14.90
2018-09-23T01:38:50.804Z,15.00
2018-09-23T01:41:55.015Z,15.10
2018-09-23T01:44:59.477Z,15.10
2018-09-23T01:48:03.778Z,15.10
2018-09-23T01:51:07.702Z,15.10
2018-09-23T01:54:12.026Z,15.10
2018-09-23T01:57:16.351Z,15.10
2018-09-23T02:00:20.657Z,15.10
2018-09-23T02:03:24.991Z,15.10
2018-09-23T02:06:29.320Z,15.00
2018-09-23T02:09:33.647Z,14.90
2018-09-23T02:12:37.820Z,15.00
2018-09-23T02:15:42.330Z,15.00
2018-09-23T02:18:46.596Z,15.00
2018-09-23T02:21:50.796Z,15.00
2018-09-23T02:24:55.079Z,15.00
2018-09-23T02:27:59.365Z,15.00
2018-09-23T02:31:03.579Z,15.00
2018-09-23T02:34:07.991Z,15.00
2018-09-23T02:37:12.188Z,15.10
2018-09-23T02:40:16.292Z,15.10
2018-09-23T02:43:20.425Z,15.20
2018-09-23T02:46:24.669Z,15.10
2018-09-23T02:49:29.005Z,15.10
2018-09-23T02:52:33.431Z,15.20
2018-09-23T02:55:37.871Z,15.20
2018-09-23T02:58:41.963Z,15.20
2018-09-23T03:01:46.145Z,15.20
2018-09-23T03:04:50.501Z,15.10
2018-09-23T03:07:54.913Z,15.10
2018-09-23T03:10:59.060Z,15.10
2018-09-23T03:14:03.243Z,15.00
2018-09-23T03:17:07.544Z,15.00
2018-09-23T03:20:11.676Z,15.00
2018-09-23T03:23:16.031Z,14.90
2018-09-23T03:26:20.358Z,14.80
2018-09-23T03:29:24.658Z,14.80
2018-09-23T03:32:28.984Z,14.70
2018-09-23T03:35:33.309Z,14.70
2018-09-23T03:38:37.747Z,14.60
2018-09-23T03:41:41.957Z,14.50
2018-09-23T03:44:47.150Z,14.50
2018-09-23T03:47:51.541Z,14.40
2018-09-23T03:50:55.934Z,14.40
2018-09-23T03:54:00.523Z,14.40
2018-09-23T03:57:04.678Z,14.50
2018-09-23T04:00:08.847Z,14.40
2018-09-23T04:03:13.190Z,14.40
2018-09-23T04:06:17.479Z,14.50
2018-09-23T04:09:22.154Z,14.50
2018-09-23T04:12:26.384Z,14.50
2018-09-23T04:15:30.716Z,14.50
2018-09-23T04:18:35.310Z,14.50
2018-09-23T04:21:39.694Z,14.50
2018-09-23T04:24:43.914Z,14.50
2018-09-23T04:27:48.648Z,14.50
2018-09-23T04:30:53.075Z,14.50
2018-09-23T04:33:57.411Z,14.50
2018-09-23T04:37:01.710Z,14.50
2018-09-23T04:40:06.001Z,14.50
2018-09-23T04:43:11.155Z,14.50
2018-09-23T04:46:15.532Z,14.60
2018-09-23T04:49:19.857Z,14.60
2018-09-23T04:52:24.144Z,14.70
2018-09-23T04:55:28.512Z,14.60
2018-09-23T04:58:32.797Z,14.70
2018-09-23T05:01:37.117Z,14.60
2018-09-23T05:04:41.524Z,14.70
2018-09-23T05:07:45.982Z,14.70
2018-09-23T05:10:50.293Z,14.70
2018-09-23T05:13:54.721Z,14.80
2018-09-23T05:16:59.073Z,14.80
2018-09-23T05:20:03.510Z,14.80
2018-09-23T05:23:07.949Z,14.90
2018-09-23T05:26:12.309Z,14.90
2018-09-23T05:29:16.660Z,15.00
2018-09-23T05:32:20.982Z,15.00
2018-09-23T05:35:25.193Z,15.00
2018-09-23T05:38:29.453Z,15.00
2018-09-23T05:41:33.571Z,15.00
2018-09-23T05:44:37.913Z,15.00
2018-09-23T05:47:42.242Z,15.10
2018-09-23T05:50:46.578Z,15.20
2018-09-23T05:53:50.865Z,15.30
2018-09-23T05:56:55.206Z,15.40
2018-09-23T06:00:00.113Z,15.50
2018-09-23T06:03:04.249Z,15.50
2018-09-23T06:06:08.729Z,15.50
2018-09-23T06:09:13.038Z,15.60
2018-09-23T06:12:17.406Z,15.60
2018-09-23T06:15:21.651Z,15.70
2018-09-23T06:18:26.042Z,15.80
2018-09-23T06:21:30.358Z,15.80
2018-09-23T06:24:34.621Z,15.80
2018-09-23T06:27:38.811Z,15.90
2018-09-23T06:30:43.068Z,15.90
2018-09-23T06:33:47.261Z,16.00
2018-09-23T06:36:51.640Z,16.10
2018-09-23T06:39:55.904Z,16.20
2018-09-23T06:43:00.130Z,16.30
2018-09-23T06:46:04.362Z,16.40
2018-09-23T06:49:08.575Z,16.40
2018-09-23T06:52:12.901Z,16.50
2018-09-23T06:55:17.207Z,16.60
2018-09-23T06:58:21.335Z,16.70
2018-09-23T07:01:25.655Z,16.70
2018-09-23T07:04:29.922Z,16.80
2018-09-23T07:07:34.198Z,16.80
2018-09-23T07:10:38.779Z,16.70
2018-09-23T07:13:43.090Z,16.70
2018-09-23T07:16:47.608Z,16.80
2018-09-23T07:19:51.834Z,17.00
2018-09-23T07:22:56.099Z,17.10
2018-09-23T07:26:00.352Z,17.20
2018-09-23T07:29:04.708Z,17.40
2018-09-23T07:32:09.153Z,17.50
2018-09-23T07:35:13.437Z,17.60
2018-09-23T07:38:17.701Z,17.60
2018-09-23T07:41:21.842Z,17.70
2018-09-23T07:44:26.167Z,17.90
2018-09-23T07:47:30.474Z,18.10
2018-09-23T07:50:34.779Z,18.10
2018-09-23T07:53:39.030Z,18.10
2018-09-23T07:56:43.178Z,18.00
2018-09-23T07:59:48.051Z,17.90
2018-09-23T08:02:52.292Z,17.70
2018-09-23T08:05:56.455Z,17.70
2018-09-23T08:09:00.649Z,17.60
2018-09-23T08:12:05.061Z,17.70
2018-09-23T08:15:09.118Z,17.70
2018-09-23T08:18:13.308Z,17.70
2018-09-23T08:21:17.696Z,17.60
2018-09-23T08:24:21.974Z,17.70
2018-09-23T08:27:26.317Z,17.80
2018-09-23T08:30:30.647Z,18.10
2018-09-23T08:33:35.117Z,18.30
2018-09-23T08:36:39.395Z,18.40
2018-09-23T08:39:43.808Z,18.40
2018-09-23T08:42:48.315Z,18.50
2018-09-23T08:45:52.853Z,18.50
2018-09-23T08:48:57.283Z,18.50
2018-09-23T08:52:01.667Z,18.50
2018-09-23T08:55:05.843Z,18.50
2018-09-23T08:58:10.314Z,18.50
2018-09-23T09:01:14.818Z,18.40
2018-09-23T09:04:19.329Z,18.30
2018-09-23T09:07:24.600Z,17.90
2018-09-23T09:10:28.796Z,17.80
2018-09-23T09:13:33.334Z,17.80
2018-09-23T09:16:37.554Z,17.90
2018-09-23T09:19:41.871Z,18.00
2018-09-23T09:22:46.059Z,18.10
2018-09-23T09:25:50.235Z,18.20
2018-09-23T09:28:54.500Z,18.20
2018-09-23T09:31:58.712Z,18.20
2018-09-23T09:35:03.027Z,18.30
2018-09-23T09:38:07.345Z,18.30
2018-09-23T09:41:11.659Z,18.40
2018-09-23T09:44:16.181Z,18.70
2018-09-23T09:47:20.608Z,18.80
2018-09-23T09:50:25.599Z,18.80
2018-09-23T09:53:29.795Z,19.00
2018-09-23T09:56:34.149Z,19.40
2018-09-23T09:59:38.304Z,20.20
2018-09-23T10:02:42.514Z,21.10
2018-09-23T10:05:47.003Z,21.70
2018-09-23T10:08:51.308Z,22.20
2018-09-23T10:11:55.844Z,24.30
2018-09-23T10:15:00.326Z,25.00
2018-09-23T10:18:04.614Z,25.00
2018-09-23T10:21:08.779Z,24.90
2018-09-23T10:24:13.009Z,25.40
2018-09-23T10:27:17.302Z,25.70
2018-09-23T10:30:21.765Z,26.20
2018-09-23T10:33:25.881Z,25.70
2018-09-23T10:36:30.090Z,25.20
2018-09-23T10:39:34.414Z,24.90
2018-09-23T10:42:38.730Z,25.80
2018-09-23T10:45:43.290Z,27.90
2018-09-23T10:48:47.615Z,30.40
2018-09-23T10:51:52.070Z,32.80
2018-09-23T10:54:56.322Z,34.30
2018-09-23T10:58:00.698Z,34.00
2018-09-23T11:01:05.296Z,33.00
2018-09-23T11:04:10.192Z,32.20
2018-09-23T11:07:15.204Z,31.80
2018-09-23T11:10:19.479Z,32.50
2018-09-23T11:13:23.752Z,34.90
2018-09-23T11:16:27.954Z,35.70
2018-09-23T11:19:32.336Z,37.30
2018-09-23T11:22:36.735Z,37.70
2018-09-23T11:25:41.082Z,38.50
2018-09-23T11:28:45.498Z,39.00
2018-09-23T11:31:49.917Z,38.70
2018-09-23T11:34:54.299Z,37.90
2018-09-23T11:37:58.498Z,36.60
2018-09-23T11:41:02.569Z,35.80
2018-09-23T11:44:06.947Z,35.60
2018-09-23T11:47:11.414Z,35.60
2018-09-23T11:50:15.766Z,33.70
2018-09-23T11:53:20.015Z,32.60
2018-09-23T11:56:24.469Z,33.20
2018-09-23T11:59:28.675Z,33.50
2018-09-23T12:02:33.163Z,34.40
2018-09-23T12:05:37.724Z,34.50
2018-09-23T12:08:41.993Z,35.00
2018-09-23T12:11:46.557Z,34.80
2018-09-23T12:14:50.937Z,36.10
2018-09-23T12:17:55.198Z,36.50
2018-09-23T12:20:59.394Z,37.40
2018-09-23T12:24:03.636Z,38.20
2018-09-23T12:27:07.987Z,39.20
2018-09-23T12:30:12.302Z,38.90
2018-09-23T12:33:16.635Z,38.00
2018-09-23T12:36:20.846Z,37.60
2018-09-23T12:39:25.068Z,37.20
2018-09-23T12:42:29.489Z,37.10
2018-09-23T12:45:33.542Z,37.50
2018-09-23T12:48:37.779Z,37.80
2018-09-23T12:51:42.237Z,37.90
2018-09-23T12:54:46.386Z,37.20
2018-09-23T12:57:50.749Z,36.70
2018-09-23T13:00:55.146Z,35.50
2018-09-23T13:03:59.384Z,34.30
2018-09-23T13:07:03.665Z,33.40
2018-09-23T13:10:08.083Z,33.50
2018-09-23T13:13:12.385Z,32.80
2018-09-23T13:16:16.831Z,32.20
2018-09-23T13:19:21.036Z,31.40
2018-09-23T13:22:25.547Z,30.40
2018-09-23T13:25:29.835Z,28.50
2018-09-23T13:28:34.182Z,27.90
2018-09-23T13:31:38.643Z,27.50
2018-09-23T13:34:43.051Z,27.20
2018-09-23T13:37:47.364Z,26.90
2018-09-23T13:40:51.692Z,26.30
2018-09-23T13:43:56.099Z,26.10
2018-09-23T13:47:00.443Z,25.90
2018-09-23T13:50:05.007Z,25.40
2018-09-23T13:53:09.209Z,25.20
2018-09-23T13:56:13.536Z,25.10
2018-09-23T13:59:17.729Z,24.90
2018-09-23T14:02:22.187Z,24.80
2018-09-23T14:05:26.588Z,24.70
2018-09-23T14:08:30.885Z,24.60
2018-09-23T14:11:35.382Z,24.40
2018-09-23T14:14:39.711Z,23.90
2018-09-23T14:17:44.229Z,23.60
2018-09-23T14:20:48.715Z,23.60
2018-09-23T14:23:52.868Z,23.50
2018-09-23T14:26:57.265Z,23.10
2018-09-23T14:30:01.799Z,23.00
2018-09-23T14:33:06.067Z,22.90
2018-09-23T14:36:10.490Z,22.40
2018-09-23T14:39:14.982Z,22.40
2018-09-23T14:42:19.097Z,22.50
2018-09-23T14:45:23.375Z,22.40
2018-09-23T14:48:27.839Z,22.40
2018-09-23T14:51:32.176Z,22.30
2018-09-23T14:54:36.632Z,22.10
2018-09-23T14:57:40.941Z,22.00
2018-09-23T15:00:45.421Z,21.80
2018-09-23T15:03:49.851Z,21.70
2018-09-23T15:06:54.210Z,21.50
2018-09-23T15:09:58.603Z,21.40
2018-09-23T15:13:02.876Z,21.30
2018-09-23T15:16:07.229Z,21.50
2018-09-23T15:19:11.519Z,21.60
2018-09-23T15:22:15.863Z,21.80
2018-09-23T15:25:20.164Z,21.80
2018-09-23T15:28:24.502Z,21.70
2018-09-23T15:31:28.927Z,21.80
2018-09-23T15:34:33.161Z,21.90
2018-09-23T15:37:37.642Z,21.90
2018-09-23T15:40:41.943Z,21.90
2018-09-23T15:43:46.424Z,21.80
2018-09-23T15:46:50.517Z,21.80
2018-09-23T15:49:54.967Z,21.80
2018-09-23T15:52:59.304Z,21.70
2018-09-23T15:56:03.920Z,21.70
2018-09-23T15:59:08.202Z,21.60
2018-09-23T16:02:12.452Z,21.60
2018-09-23T16:05:16.817Z,21.50
2018-09-23T16:08:21.280Z,21.30
2018-09-23T16:11:25.627Z,21.30
2018-09-23T16:14:30.111Z,21.20
2018-09-23T16:17:34.454Z,21.10
2018-09-23T16:20:39.000Z,21.00
2018-09-23T16:23:43.482Z,20.70
2018-09-23T16:26:48.036Z,20.60
2018-09-23T16:29:59.041Z,20.40
2018-09-23T16:33:03.218Z,20.40
2018-09-23T16:36:06.978Z,20.30
2018-09-23T16:39:11.769Z,20.20
2018-09-23T16:42:16.192Z,20.10
2018-09-23T16:45:20.490Z,20.00
2018-09-23T16:48:24.811Z,19.90
2018-09-23T16:51:29.154Z,19.90
2018-09-23T16:54:33.475Z,19.90
2018-09-23T16:57:37.983Z,19.90
2018-09-23T17:00:42.290Z,19.80
2018-09-23T17:03:46.633Z,19.80
2018-09-23T17:06:57.074Z,19.70
2018-09-23T17:10:01.274Z,19.70
2018-09-23T17:13:05.664Z,19.50
2018-09-23T17:16:09.941Z,19.50
2018-09-23T17:19:14.275Z,19.40
2018-09-23T17:22:18.625Z,19.30
2018-09-23T17:25:22.897Z,19.30
2018-09-23T17:28:27.249Z,19.20
2018-09-23T17:31:31.494Z,19.10
2018-09-23T17:34:35.802Z,19.10
2018-09-23T17:37:40.152Z,19.00
2018-09-23T17:40:44.671Z,19.00
2018-09-23T17:43:48.980Z,18.90
2018-09-23T17:46:53.366Z,18.80
2018-09-23T17:49:57.647Z,18.90
2018-09-23T17:53:02.128Z,18.90
2018-09-23T17:56:06.740Z,18.80
2018-09-23T17:59:11.028Z,18.80
2018-09-23T18:02:15.390Z,18.80
2018-09-23T18:05:19.790Z,18.80
2018-09-23T18:08:24.178Z,18.80
2018-09-23T18:11:28.478Z,18.80
2018-09-23T18:14:32.749Z,18.80
2018-09-23T18:17:36.924Z,18.80
2018-09-23T18:20:41.104Z,18.80
2018-09-23T18:23:45.450Z,18.80
2018-09-23T18:26:49.722Z,18.70
2018-09-23T18:29:54.123Z,18.70
2018-09-23T18:32:58.386Z,18.70
2018-09-23T18:36:02.723Z,18.70
2018-09-23T18:39:08.675Z,18.70
2018-09-23T18:42:13.034Z,18.70
2018-09-23T18:45:17.317Z,18.70
2018-09-23T18:48:21.598Z,18.60
2018-09-23T18:51:25.876Z,18.60
2018-09-23T18:54:35.305Z,18.60
2018-09-23T18:57:39.677Z,18.50
2018-09-23T19:00:43.844Z,18.50
2018-09-23T19:03:48.125Z,18.50
2018-09-23T19:06:52.492Z,18.40
2018-09-23T19:09:57.743Z,18.40
2018-09-23T19:13:07.270Z,18.40
2018-09-23T19:16:16.844Z,18.40
2018-09-23T19:19:25.433Z,18.30
2018-09-23T19:22:34.948Z,18.30
2018-09-23T19:25:39.273Z,18.20
2018-09-23T19:28:43.569Z,18.10
2018-09-23T19:31:48.582Z,18.20
2018-09-23T19:34:53.332Z,18.20
2018-09-23T19:37:57.797Z,18.20
2018-09-23T19:41:02.099Z,18.20
2018-09-23T19:44:07.204Z,18.30
2018-09-23T19:47:11.502Z,18.20
2018-09-23T19:50:15.953Z,18.10
2018-09-23T19:53:20.348Z,18.00
2018-09-23T19:56:24.734Z,18.00
2018-09-23T19:59:29.216Z,18.00
2018-09-23T20:02:33.327Z,18.00
2018-09-23T20:05:37.339Z,18.00
2018-09-23T20:08:41.451Z,18.00
2018-09-23T20:11:45.825Z,18.00
2018-09-23T20:14:50.376Z,18.00
2018-09-23T20:17:54.898Z,17.80
2018-09-23T20:20:59.303Z,17.80
2018-09-23T20:24:03.613Z,17.80
2018-09-23T20:27:07.965Z,17.80
2018-09-23T20:30:12.420Z,17.80
2018-09-23T20:33:16.527Z,17.80
2018-09-23T20:36:20.477Z,17.80
2018-09-23T20:39:24.904Z,17.80
2018-09-23T20:42:29.307Z,17.90
2018-09-23T20:45:34.622Z,17.90
2018-09-23T20:48:39.077Z,17.80
2018-09-23T20:51:44.385Z,17.80
2018-09-23T20:54:48.803Z,17.80
2018-09-23T20:57:52.797Z,17.80
2018-09-23T21:00:56.676Z,17.80
2018-09-23T21:04:01.189Z,17.90
2018-09-23T21:07:05.639Z,17.80
2018-09-23T21:10:09.759Z,17.80
2018-09-23T21:13:14.141Z,17.80
2018-09-23T21:16:18.499Z,17.80
2018-09-23T21:19:22.973Z,17.80
2018-09-23T21:22:27.163Z,17.70
2018-09-23T21:25:31.451Z,17.80
2018-09-23T21:28:35.871Z,17.70
2018-09-23T21:31:40.654Z,17.70
2018-09-23T21:34:45.010Z,17.40
2018-09-23T21:37:49.851Z,17.30
2018-09-23T21:40:54.904Z,17.30
2018-09-23T21:43:59.016Z,17.20
2018-09-23T21:47:02.988Z,17.20
2018-09-23T21:50:07.307Z,17.20
2018-09-23T21:53:11.808Z,17.30
2018-09-23T21:56:16.289Z,17.30
2018-09-23T21:59:20.825Z,17.30
2018-09-23T22:02:25.183Z,17.30
2018-09-23T22:05:29.652Z,17.20
2018-09-23T22:08:33.888Z,17.20
2018-09-23T22:11:38.219Z,17.30
2018-09-23T22:14:42.653Z,17.20
2018-09-23T22:17:46.981Z,17.30
2018-09-23T22:20:51.306Z,17.30
2018-09-23T22:23:55.695Z,17.40
2018-09-23T22:27:00.327Z,17.50
2018-09-23T22:30:04.746Z,17.50
2018-09-23T22:33:08.981Z,17.50
2018-09-23T22:36:13.361Z,17.50
2018-09-23T22:39:17.881Z,17.60
2018-09-23T22:42:22.300Z,17.60
2018-09-23T22:45:26.839Z,17.50
2018-09-23T22:48:31.293Z,17.50
2018-09-23T22:51:35.662Z,17.50
2018-09-23T22:54:40.156Z,17.60
2018-09-23T22:57:44.430Z,17.60
2018-09-23T23:00:48.780Z,17.60
2018-09-23T23:03:53.065Z,17.70
2018-09-23T23:06:57.453Z,17.80
2018-09-23T23:10:01.591Z,18.00
2018-09-23T23:13:06.299Z,18.20
2018-09-23T23:16:10.617Z,18.30
2018-09-23T23:19:14.885Z,18.40
2018-09-23T23:22:19.194Z,18.60
2018-09-23T23:25:23.586Z,18.60
2018-09-23T23:28:27.921Z,18.70
2018-09-23T23:31:32.315Z,18.70
2018-09-23T23:34:36.734Z,18.70
2018-09-23T23:37:41.459Z,18.70
2018-09-23T23:40:45.331Z,18.70
2018-09-23T23:43:50.118Z,18.70
2018-09-23T23:46:53.963Z,18.50
2018-09-23T23:49:58.202Z,18.50
2018-09-23T23:53:03.448Z,18.40
2018-09-23T23:56:07.800Z,18.30
2018-09-23T23:59:12.081Z,18.30
